Flight Track Log - Related Links

Times and Time Zones

All times are in EDT time to prevent confusion due to time zone crossing. See the UAL5915 flight status page for this flight to view local times or setup timezone preferences in your user account.

Time Position Orientation Groundspeed Altitude Reporting Facility
EDT Latitude Longitude Course Direction KTS MPH feet Rate Location/Type
Sun 01:44:07 PM 36.1953 -95.8633 88° East 161 185 1,500  Level Kansas City Center
Sun 01:44:25 PM 36.1958 -95.8453 88° East 168 193 2,200 2,154 Climbing Kansas City Center
Sun 01:45:25 PM 36.1953 -95.7650 90° East 253 291 4,300 2,191 Climbing Kansas City Center
Sun 01:46:20 PM 36.1897 -95.6914 95° East 261 300 6,400 2,328 Climbing Kansas City Center
Sun 01:47:21 PM 36.1661 -95.5972 107° East 284 327 8,800 2,262 Climbing Kansas City Center
Sun 01:48:22 PM 36.1372 -95.4747 106° East 306 352 11,000 1,344 Climbing Kansas City Center
Sun 01:49:26 PM 36.1072 -95.3497 107° East 368 423 11,600 1,104 Climbing Kansas City Center
Sun 01:50:27 PM 36.0764 -95.2169 106° East 397 457 13,300 1,659 Climbing Kansas City Center
Sun 01:51:29 PM 36.0767 -95.0769 90° East 406 467 15,000 1,623 Climbing Kansas City Center
Sun 01:52:29 PM 36.0819 -94.9361 87° East 409 471 16,600 1,694 Climbing Kansas City Center
Sun 01:53:33 PM 36.0883 -94.7950 87° East 411 473 18,500 1,659 Climbing Kansas City Center
Sun 01:54:32 PM 36.0964 -94.6183 87° East 409 471 20,000 1,412 Climbing Memphis Center
Sun 01:55:32 PM 36.1033 -94.4672 87° East 422 486 21,300 1,300 Climbing Memphis Center
Sun 01:56:32 PM 36.1064 -94.3158 89° East 435 501 22,600 1,300 Climbing Memphis Center
Sun 01:57:32 PM 36.1133 -94.1594 87° East 440 506 23,900 1,150 Climbing Memphis Center
Sun 01:58:32 PM 36.1153 -94.0208 89° East 440 506 24,900 1,150 Climbing Memphis Center
Sun 01:59:32 PM 36.1197 -93.8642 88° East 440 506 26,200 1,300 Climbing Memphis Center
Sun 02:00:32 PM 36.1242 -93.7103 88° East 440 506 27,500 1,250 Climbing Memphis Center
Sun 02:01:32 PM 36.1342 -93.5592 85° East 440 506 28,700 1,250 Climbing Memphis Center
Sun 02:02:32 PM 36.1714 -93.4139 72° East 440 506 30,000 1,150 Climbing Memphis Center
Sun 02:03:32 PM 36.2061 -93.2636 74° East 440 506 31,000 950 Climbing Memphis Center
Sun 02:04:32 PM 36.2450 -93.1131 72° East 450 518 31,900 900 Climbing Memphis Center
Sun 02:05:32 PM 36.2817 -92.9597 73° East 455 524 32,800 550 Climbing Memphis Center
Sun 02:06:32 PM 36.3161 -92.8039 75° East 455 524 33,000 100 Climbing Memphis Center
Sun 02:07:32 PM 36.3544 -92.6425 74° East 462 532 33,000  Level Memphis Center
Sun 02:08:32 PM 36.3928 -92.4814 73° East 474 545 33,000  Level Memphis Center
Sun 02:09:32 PM 36.4308 -92.3197 74° East 479 551 33,000  Level Memphis Center
Sun 02:10:32 PM 36.4686 -92.1633 73° East 474 545 33,000  Level Memphis Center
Sun 02:11:32 PM 36.5064 -91.9964 74° East 469 540 33,000  Level Memphis Center
Sun 02:12:32 PM 36.5419 -91.8369 74° East 469 540 33,000  Level Memphis Center
Sun 02:13:32 PM 36.5769 -91.6800 74° East 469 540 33,000  Level Memphis Center
Sun 02:14:32 PM 36.6119 -91.5228 74° East 474 545 33,000  Level Memphis Center
Sun 02:15:32 PM 36.6486 -91.3631 74° East 474 545 33,000  Level Memphis Center
Sun 02:16:32 PM 36.6831 -91.2031 75° East 474 545 33,000  Level Memphis Center
Sun 02:17:32 PM 36.7175 -91.0428 75° East 474 545 33,000  Level Memphis Center
Sun 02:18:32 PM 36.7536 -90.8825 74° East 474 545 33,000  Level Memphis Center
Sun 02:19:32 PM 36.7897 -90.7197 74° East 474 545 33,000  Level Memphis Center
Sun 02:20:32 PM 36.8256 -90.5564 75° East 474 545 33,000  Level Memphis Center
Sun 02:21:32 PM 36.8589 -90.3906 76° East 480 552 33,000  Level Memphis Center
Sun 02:22:32 PM 36.8964 -90.2219 74° East 486 559 33,000  Level Memphis Center
Sun 02:23:32 PM 36.9275 -90.0767 75° East 491 565 33,000  Level Memphis Center
Sun 02:24:32 PM 36.9644 -89.9050 75° East 491 565 33,000  Level Memphis Center
Sun 02:25:32 PM 36.9969 -89.7464 76° East 486 559 33,000  Level Memphis Center
Sun 02:26:32 PM 37.0294 -89.5903 75° East 473 544 33,000  Level Memphis Center
Sun 02:27:32 PM 37.0639 -89.4236 75° East 479 551 33,000  Level Memphis Center
Sun 02:28:32 PM 37.1000 -89.2542 75° East 484 557 33,000  Level Memphis Center
Sun 02:29:32 PM 37.1336 -89.0794 76° East 495 570 33,000  Level Memphis Center
Sun 02:30:32 PM 37.1506 -88.9072 83° East 501 577 33,000  Level Memphis Center
Sun 02:31:32 PM 37.1631 -88.7381 85° East 501 577 33,000  Level Memphis Center
Sun 02:32:32 PM 37.1753 -88.5658 85° East 501 577 33,000  Level Memphis Center
Sun 02:33:32 PM 37.1853 -88.4042 86° East 486 559 33,000  Level Memphis Center
Sun 02:34:32 PM 37.1992 -88.2372 84° East 480 552 33,000  Level Memphis Center
Sun 02:35:32 PM 37.2083 -88.0547 86° East 480 552 33,000  Level Memphis Center
Sun 02:37:32 PM 37.2683 -87.7356 77° East 478 550 33,000  Level Indianapolis Center
Sun 02:38:34 PM 37.3022 -87.5706 75° East 483 556 33,000  Level Indianapolis Center
Sun 02:39:36 PM 37.3369 -87.4000 76° East 495 570 33,000  Level Indianapolis Center
Sun 02:40:38 PM 37.3733 -87.2256 75° East 506 582 33,000  Level Indianapolis Center
Sun 02:41:40 PM 37.4094 -87.0489 76° East 514 592 33,000  Level Indianapolis Center
Sun 02:42:42 PM 37.4447 -86.8722 76° East 515 593 33,000  Level Indianapolis Center
Sun 02:43:44 PM 37.4808 -86.6953 76° East 515 593 33,000  Level Indianapolis Center
Sun 02:44:46 PM 37.5211 -86.4892 76° East 515 593 33,000  Level Indianapolis Center
Sun 02:45:48 PM 37.5564 -86.3114 76° East 517 595 33,000  Level Indianapolis Center
Sun 02:46:50 PM 37.5922 -86.1272 76° East 515 593 33,000  Level Indianapolis Center
Sun 02:47:52 PM 37.6264 -85.9506 76° East 519 597 33,000  Level Indianapolis Center
Sun 02:48:54 PM 37.6597 -85.7742 77° East 517 595 33,000  Level Indianapolis Center
Sun 02:49:57 PM 37.6942 -85.5975 76° East 517 595 33,000  Level Indianapolis Center
Sun 02:50:59 PM 37.7292 -85.4119 77° East 517 595 33,000  Level Indianapolis Center
Sun 02:52:01 PM 37.7617 -85.2350 77° East 519 597 33,000  Level Indianapolis Center
Sun 02:53:03 PM 37.7936 -85.0578 77° East 518 596 33,000  Level Indianapolis Center
Sun 02:54:05 PM 37.8325 -84.8506 77° East 518 596 33,000  Level Indianapolis Center
Sun 02:55:07 PM 37.8639 -84.6719 77° East 520 598 33,000  Level Indianapolis Center
Sun 02:56:09 PM 37.8969 -84.4925 77° East 522 601 33,000  Level Indianapolis Center
Sun 02:57:11 PM 37.9294 -84.3136 77° East 522 601 33,000  Level Indianapolis Center
Sun 02:58:13 PM 37.9611 -84.1325 77° East 525 604 33,000  Level Indianapolis Center
Sun 02:59:15 PM 37.9928 -83.9508 77° East 527 606 33,000  Level Indianapolis Center
Sun 03:00:17 PM 38.0300 -83.7350 78° East 536 617 33,000  Level Indianapolis Center
Sun 03:01:19 PM 38.0608 -83.5519 78° East 530 610 33,000  Level Indianapolis Center
Sun 03:02:21 PM 38.0922 -83.3694 78° East 527 606 33,000  Level Indianapolis Center
Sun 03:03:23 PM 38.1219 -83.1847 78° East 530 610 33,000  Level Indianapolis Center
Sun 03:04:25 PM 38.1536 -83.0000 78° East 533 613 33,000  Level Indianapolis Center
Sun 03:05:27 PM 38.1828 -82.8142 79° East 533 613 33,000  Level Indianapolis Center
Sun 03:06:29 PM 38.2189 -82.5994 78° East 532 612 33,000  Level Indianapolis Center
Sun 03:07:31 PM 38.2442 -82.4342 79° East 535 616 33,000  Level Indianapolis Center
Sun 03:08:33 PM 38.2747 -82.2478 78° East 537 618 33,000  Level Indianapolis Center
Sun 03:09:35 PM 38.3094 -82.0250 79° East 538 619 33,000  Level Indianapolis Center
Sun 03:10:37 PM 38.3500 -81.8472 74° East 525 604 33,000  Level Indianapolis Center
Sun 03:11:39 PM 38.4031 -81.6789 68° East 516 594 33,000  Level Indianapolis Center
Sun 03:12:41 PM 38.4539 -81.5119 69° East 512 589 33,000  Level Indianapolis Center
Sun 03:13:43 PM 38.5058 -81.3458 68° East 513 590 33,000  Level Indianapolis Center
Sun 03:14:45 PM 38.5136 -81.1392 87° East 499 574 33,000  Level Indianapolis Center
Sun 03:15:47 PM 38.4447 -80.9958 122° Southeast 472 543 33,000  Level Indianapolis Center
Sun 03:16:49 PM 38.3667 -80.8592 126° Southeast 474 545 33,000  Level Indianapolis Center
Sun 03:17:12 PM 38.3333 -80.7986 125° Southeast 472 543 33,000  Level Washington Center
Sun 03:18:12 PM 38.3075 -80.6275 101° East 475 547 33,000  Level Washington Center
Sun 03:19:12 PM 38.3286 -80.4647 81° East 498 573 33,000  Level Washington Center
Sun 03:20:12 PM 38.3650 -80.2869 75° East 498 573 33,000  Level Washington Center
Sun 03:21:12 PM 38.3989 -80.1117 76° East 503 579 33,000 -595 Level Washington Center
Sun 03:22:13 PM 38.4347 -79.9308 76° East 508 585 31,800 -2,650 Descending Washington Center
Sun 03:23:12 PM 38.4686 -79.7419 77° East 508 585 27,700 -3,500 Descending Washington Center
Sun 03:24:13 PM 38.4992 -79.5764 77° East 490 564 24,800 -1,850 Descending Washington Center
Sun 03:25:12 PM 38.5294 -79.4161 76° East 474 545 24,000 -706 Descending Washington Center
Sun 03:26:12 PM 38.5572 -79.2556 77° East 466 536 23,400 -1,250 Descending Washington Center
Sun 03:27:12 PM 38.5764 -79.1053 81° East 453 521 21,500 -2,050 Descending Washington Center
Sun 03:28:12 PM 38.6014 -78.9603 78° East 429 494 19,300 -2,000 Descending Washington Center
Sun 03:29:12 PM 38.6239 -78.8231 78° East 406 467 17,500 -1,884 Descending Washington Center
Sun 03:30:13 PM 38.6544 -78.6914 73° East 388 447 15,500 -2,033 Descending Washington Center
Sun 03:31:13 PM 38.6847 -78.5650 73° East 378 435 13,400 -2,067 Descending Washington Center
Sun 03:32:12 PM 38.7150 -78.4411 73° East 373 429 11,400 -1,563 Descending Washington Center
Sun 03:33:12 PM 38.7550 -78.3364 64° Northeast 348 400 10,300 -1,200 Descending Washington Center
Sun 03:34:12 PM 38.8150 -78.2586 45° Northeast 311 358 9,000 -1,050 Descending Washington Center
Sun 03:35:12 PM 38.8628 -78.1750 54° Northeast 303 349 8,200 -1,000 Descending Washington Center
Sun 03:36:12 PM 38.8900 -78.0692 72° East 298 343 7,000 -950 Descending Washington Center
Sun 03:37:12 PM 38.9128 -77.9686 74° East 298 343 6,300 -550 Descending Washington Center
Sun 03:38:12 PM 38.9378 -77.8733 71° East 286 329 5,900 -149 Descending Washington Center
Sun 03:39:13 PM 38.9603 -77.7753 74° East 286 329 6,000 50 Climbing Washington Center
Sun 03:40:12 PM 38.9578 -77.6844 92° East 275 316 6,000  Level Washington Center
Sun 03:41:21 PM 38.9000 -77.6000 131° Southeast 263 303 6,000 -185 Level Potomac TRACON
Sun 03:42:22 PM 38.8333 -77.5667 159° South 240 276 5,600 -942 Descending Potomac TRACON
Sun 03:43:22 PM 38.7667 -77.5667 180° South 238 274 4,100 -1,100 Descending Potomac TRACON
Sun 03:44:22 PM 38.7833 -77.5000 72° East 192 221 3,400 -550 Descending Potomac TRACON
Sun 03:45:22 PM 38.8167 -77.4667 38° Northeast 180 207 3,000 -783 Descending Potomac TRACON
Sun 03:46:17 PM 38.8667 -77.4667 360° North 176 203 1,900 -1,043 Descending Potomac TRACON
Sun 03:47:17 PM 38.9000 -77.4667 360° North 144 166 1,000 -900 Descending Potomac TRACON
Sun 03:49:00 PM 38.9474 -77.4599 North  Level Estimated
Sun 03:56:00 PM 38.9474 -77.4599 159° South  Level Estimated

Login

Don't have an account? Register now (free) for customized features, flight alerts, and more!